createdAt,value
2018-06-29T00:04:01.810Z,99.90
2018-06-29T00:07:05.443Z,99.90
2018-06-29T00:13:12.417Z,99.90
2018-06-29T00:16:16.147Z,99.90
2018-06-29T00:19:19.790Z,99.90
2018-06-29T00:22:23.427Z,99.90
2018-06-29T00:25:27.027Z,99.90
2018-06-29T00:28:30.658Z,99.90
2018-06-29T00:34:37.615Z,99.90
2018-06-29T00:37:41.221Z,99.90
2018-06-29T00:40:44.912Z,99.90
2018-06-29T00:43:48.607Z,99.90
2018-06-29T00:46:52.273Z,99.90
2018-06-29T00:49:55.884Z,99.90
2018-06-29T00:52:59.506Z,99.90
2018-06-29T00:56:03.110Z,99.90
2018-06-29T00:59:06.734Z,99.90
2018-06-29T01:02:10.339Z,99.90
2018-06-29T01:05:13.955Z,99.90
2018-06-29T01:08:17.619Z,99.90
2018-06-29T01:11:21.182Z,99.90
2018-06-29T01:17:28.133Z,99.90
2018-06-29T01:20:32.539Z,99.90
2018-06-29T01:23:36.166Z,99.90
2018-06-29T01:26:39.773Z,99.90
2018-06-29T01:29:43.401Z,99.90
2018-06-29T01:32:47.027Z,99.90
2018-06-29T01:35:50.670Z,99.90
2018-06-29T01:38:54.295Z,99.90
2018-06-29T01:41:57.913Z,99.90
2018-06-29T01:48:05.406Z,99.90
2018-06-29T01:51:09.026Z,99.90
2018-06-29T01:57:15.977Z,99.90
2018-06-29T02:00:20.726Z,99.90
2018-06-29T02:03:24.618Z,99.90
2018-06-29T02:06:28.529Z,99.90
2018-06-29T02:09:32.130Z,99.90
2018-06-29T02:12:35.754Z,99.90
2018-06-29T02:15:39.363Z,99.90
2018-06-29T02:21:46.446Z,99.90
2018-06-29T02:24:50.074Z,99.90
2018-06-29T02:30:57.127Z,99.90
2018-06-29T02:34:00.737Z,99.90
2018-06-29T02:37:04.648Z,99.90
2018-06-29T02:40:08.264Z,99.90
2018-06-29T02:43:11.895Z,99.90
2018-06-29T02:49:18.955Z,99.90
2018-06-29T02:52:22.657Z,99.90
2018-06-29T02:55:26.275Z,99.90
2018-06-29T02:58:29.888Z,99.90
2018-06-29T03:01:33.535Z,99.90
2018-06-29T03:04:37.354Z,99.90
2018-06-29T03:07:40.973Z,99.90
2018-06-29T03:10:44.591Z,99.90
2018-06-29T03:13:48.240Z,99.90
2018-06-29T03:16:51.883Z,99.90
2018-06-29T03:19:55.603Z,99.90
2018-06-29T03:22:59.212Z,99.90
2018-06-29T03:26:02.868Z,99.90
2018-06-29T03:29:06.498Z,99.90
2018-06-29T03:32:10.286Z,99.80
2018-06-29T03:35:13.983Z,99.00
2018-06-29T03:38:17.623Z,98.70
2018-06-29T03:41:21.237Z,98.10
2018-06-29T03:44:24.878Z,97.80
2018-06-29T03:47:28.518Z,97.90
2018-06-29T03:50:32.159Z,97.60
2018-06-29T03:53:35.767Z,97.50
2018-06-29T03:56:39.414Z,97.50
2018-06-29T03:59:43.028Z,97.20
2018-06-29T04:02:46.694Z,96.50
2018-06-29T04:05:50.313Z,96.20
2018-06-29T04:08:53.922Z,95.80
2018-06-29T04:11:57.564Z,95.90
2018-06-29T04:15:01.166Z,95.70
2018-06-29T04:21:08.143Z,96.00
2018-06-29T04:24:11.771Z,95.80
2018-06-29T04:30:18.819Z,95.00
2018-06-29T04:33:22.731Z,94.70
2018-06-29T04:36:26.424Z,94.60
2018-06-29T04:39:30.058Z,94.70
2018-06-29T04:42:33.672Z,94.70
2018-06-29T04:45:37.311Z,94.30
2018-06-29T04:48:40.931Z,94.40
2018-06-29T04:51:44.563Z,94.60
2018-06-29T04:54:48.171Z,94.40
2018-06-29T05:00:55.223Z,94.20
2018-06-29T05:03:58.803Z,94.50
2018-06-29T05:07:02.444Z,93.80
2018-06-29T05:10:06.199Z,93.30
2018-06-29T05:19:16.788Z,93.40
2018-06-29T05:22:20.435Z,93.30
2018-06-29T05:25:24.045Z,93.00
2018-06-29T05:28:27.793Z,92.40
2018-06-29T05:31:31.431Z,92.80
2018-06-29T05:34:35.120Z,92.70
2018-06-29T05:37:38.708Z,92.30
2018-06-29T05:40:42.457Z,92.30
2018-06-29T05:43:46.097Z,92.50
2018-06-29T05:46:49.735Z,92.30
2018-06-29T05:52:56.711Z,91.70
2018-06-29T05:56:00.367Z,91.70
2018-06-29T05:59:04.441Z,90.90
2018-06-29T06:02:08.848Z,91.10
2018-06-29T06:05:12.548Z,90.90
2018-06-29T06:08:16.164Z,90.50
2018-06-29T06:14:23.143Z,90.30
2018-06-29T06:17:26.902Z,90.10
2018-06-29T06:20:30.530Z,89.00
2018-06-29T06:23:34.215Z,88.10
2018-06-29T06:26:37.877Z,88.50
2018-06-29T06:29:41.490Z,88.50
2018-06-29T06:35:48.505Z,88.40
2018-06-29T06:38:52.165Z,87.90
2018-06-29T06:41:55.844Z,88.40
2018-06-29T06:44:59.737Z,87.70
2018-06-29T06:48:03.651Z,88.40
2018-06-29T06:51:07.512Z,88.90
2018-06-29T06:54:11.121Z,87.70
2018-06-29T07:03:22.859Z,87.20
2018-06-29T07:06:26.483Z,86.40
2018-06-29T07:09:30.099Z,86.20
2018-06-29T07:12:33.992Z,86.10
2018-06-29T07:15:37.516Z,86.00
2018-06-29T07:18:41.167Z,85.40
2018-06-29T07:21:45.038Z,85.10
2018-06-29T07:24:48.678Z,85.00
2018-06-29T07:27:52.365Z,84.50
2018-06-29T07:30:55.965Z,83.10
2018-06-29T07:37:02.930Z,81.40
2018-06-29T07:40:06.670Z,82.30
2018-06-29T07:43:10.282Z,81.00
2018-06-29T07:46:14.075Z,80.30
2018-06-29T07:49:17.675Z,82.00
2018-06-29T07:55:25.493Z,81.30
2018-06-29T07:58:29.259Z,80.40
2018-06-29T08:01:32.779Z,80.20
2018-06-29T08:04:36.402Z,79.60
2018-06-29T08:10:44.318Z,79.50
2018-06-29T08:13:47.850Z,79.20
2018-06-29T08:16:51.514Z,78.10
2018-06-29T08:19:55.227Z,78.40
2018-06-29T08:22:58.840Z,76.20
2018-06-29T08:26:14.879Z,77.40
2018-06-29T08:29:18.496Z,78.50
2018-06-29T08:32:22.179Z,79.10
2018-06-29T08:35:25.783Z,79.90
2018-06-29T08:38:29.425Z,79.40
2018-06-29T08:44:36.401Z,78.70
2018-06-29T08:48:43.260Z,77.70
2018-06-29T08:51:46.900Z,77.40
2018-06-29T08:54:50.506Z,76.70
2018-06-29T09:00:57.511Z,75.10
2018-06-29T09:07:04.656Z,74.30
2018-06-29T09:10:08.483Z,75.10
2018-06-29T09:13:12.126Z,74.90
2018-06-29T09:16:15.763Z,74.80
2018-06-29T09:19:19.369Z,74.30
2018-06-29T09:22:23.022Z,73.80
2018-06-29T09:28:30.036Z,72.20
2018-06-29T09:34:37.031Z,74.50
2018-06-29T09:37:40.633Z,75.30
2018-06-29T09:43:48.084Z,73.60
2018-06-29T09:46:51.750Z,73.00
2018-06-29T09:49:55.419Z,70.80
2018-06-29T09:52:59.086Z,70.80
2018-06-29T09:56:02.683Z,72.50
2018-06-29T09:59:06.333Z,73.90
2018-06-29T10:02:09.934Z,74.90
2018-06-29T10:05:13.558Z,76.00
2018-06-29T10:08:18.116Z,75.30
2018-06-29T10:11:21.746Z,74.90
2018-06-29T10:14:25.466Z,73.60
2018-06-29T10:17:29.142Z,73.10
2018-06-29T10:20:32.891Z,71.40
2018-06-29T10:23:36.521Z,71.60
2018-06-29T10:26:40.152Z,70.40
2018-06-29T10:29:43.901Z,68.90
2018-06-29T10:32:47.496Z,67.40
2018-06-29T10:38:54.460Z,70.00
2018-06-29T10:41:58.092Z,69.90
2018-06-29T10:48:05.470Z,66.70
2018-06-29T10:51:09.102Z,67.50
2018-06-29T10:54:12.745Z,66.90
2018-06-29T10:57:16.351Z,68.30
2018-06-29T11:00:20.531Z,68.50
2018-06-29T11:03:24.189Z,67.70
2018-06-29T11:06:27.811Z,67.10
2018-06-29T11:12:34.969Z,66.60
2018-06-29T11:15:38.666Z,66.40
2018-06-29T11:18:42.312Z,66.20
2018-06-29T11:21:45.999Z,66.00
2018-06-29T11:24:50.373Z,65.50
2018-06-29T11:30:57.391Z,63.80
2018-06-29T11:34:01.052Z,65.10
2018-06-29T11:37:04.770Z,64.70
2018-06-29T11:40:08.413Z,65.30
2018-06-29T11:43:12.126Z,65.50
2018-06-29T11:46:15.738Z,65.60
2018-06-29T11:49:19.401Z,66.10
2018-06-29T11:52:23.066Z,67.60
2018-06-29T11:55:26.703Z,68.30
2018-06-29T11:58:30.359Z,68.70
2018-06-29T12:01:34.004Z,69.40
2018-06-29T12:04:37.622Z,69.80
2018-06-29T12:07:41.276Z,70.00
2018-06-29T12:10:44.955Z,68.20
2018-06-29T12:13:48.634Z,69.00
2018-06-29T12:16:52.568Z,67.60
2018-06-29T12:19:56.481Z,67.80
2018-06-29T12:23:00.099Z,68.20
2018-06-29T12:26:03.739Z,67.30
2018-06-29T12:29:07.361Z,67.30
2018-06-29T12:32:10.982Z,65.90
2018-06-29T12:35:14.587Z,65.50
2018-06-29T12:38:18.451Z,65.40
2018-06-29T12:41:22.163Z,66.80
2018-06-29T12:44:25.798Z,66.70
2018-06-29T12:47:29.405Z,64.30
2018-06-29T12:50:33.065Z,64.20
2018-06-29T12:53:36.704Z,65.00
2018-06-29T12:56:40.354Z,64.00
2018-06-29T12:59:44.000Z,63.30
2018-06-29T13:02:47.575Z,64.10
2018-06-29T13:05:51.182Z,64.20
2018-06-29T13:08:54.798Z,63.40
2018-06-29T13:11:58.414Z,63.60
2018-06-29T13:18:05.419Z,64.40
2018-06-29T13:21:09.122Z,62.90
2018-06-29T13:24:12.739Z,63.20
2018-06-29T13:27:16.379Z,62.70
2018-06-29T13:30:20.033Z,63.00
2018-06-29T13:33:23.671Z,62.10
2018-06-29T13:39:30.664Z,61.50
2018-06-29T13:42:34.273Z,60.30
2018-06-29T13:48:41.247Z,58.30
2018-06-29T13:51:44.907Z,58.70
2018-06-29T13:54:48.584Z,58.30
2018-06-29T13:57:52.282Z,59.50
2018-06-29T14:00:55.859Z,59.30
2018-06-29T14:03:59.528Z,58.50
2018-06-29T14:07:03.150Z,59.10
2018-06-29T14:10:07.035Z,58.80
2018-06-29T14:13:10.654Z,58.80
2018-06-29T14:16:14.383Z,58.70
2018-06-29T14:19:18.003Z,59.20
2018-06-29T14:22:21.706Z,59.40
2018-06-29T14:28:28.694Z,59.70
2018-06-29T14:31:32.293Z,60.20
2018-06-29T14:37:39.389Z,61.00
2018-06-29T14:40:43.035Z,62.10
2018-06-29T14:43:46.666Z,63.20
2018-06-29T14:46:50.364Z,63.00
2018-06-29T14:49:54.020Z,63.20
2018-06-29T14:56:01.108Z,63.00
2018-06-29T14:59:04.754Z,63.40
2018-06-29T15:02:08.480Z,63.00
2018-06-29T15:05:12.112Z,62.90
2018-06-29T15:08:15.720Z,63.10
2018-06-29T15:14:22.710Z,62.70
2018-06-29T15:17:26.344Z,62.80
2018-06-29T15:20:29.957Z,63.10
2018-06-29T15:23:33.583Z,64.20
2018-06-29T15:26:37.207Z,65.20
2018-06-29T15:29:40.835Z,66.70
2018-06-29T15:35:47.832Z,67.60
2018-06-29T15:38:51.487Z,67.30
2018-06-29T15:41:55.214Z,66.60
2018-06-29T15:44:58.816Z,67.10
2018-06-29T15:48:02.552Z,72.60
2018-06-29T15:51:06.153Z,83.10
2018-06-29T15:57:13.125Z,89.70
2018-06-29T16:00:17.945Z,90.90
2018-06-29T16:03:21.588Z,91.60
2018-06-29T16:06:25.246Z,92.50
2018-06-29T16:09:28.936Z,93.10
2018-06-29T16:12:32.559Z,93.40
2018-06-29T16:15:36.186Z,93.30
2018-06-29T16:18:39.840Z,93.20
2018-06-29T16:21:43.514Z,93.50
2018-06-29T16:24:48.187Z,93.90
2018-06-29T16:27:51.795Z,94.00
2018-06-29T16:30:55.443Z,94.20
2018-06-29T16:33:59.043Z,94.50
2018-06-29T16:37:03.171Z,94.70
2018-06-29T16:40:06.872Z,94.50
2018-06-29T16:43:10.707Z,94.40
2018-06-29T16:46:14.332Z,94.10
2018-06-29T16:49:17.982Z,94.40
2018-06-29T16:52:21.627Z,93.00
2018-06-29T16:55:25.362Z,92.70
2018-06-29T16:58:29.130Z,93.20
2018-06-29T17:01:32.797Z,93.20
2018-06-29T17:04:36.414Z,93.50
2018-06-29T17:07:40.076Z,94.00
2018-06-29T17:10:43.650Z,94.30
2018-06-29T17:13:48.933Z,94.50
2018-06-29T17:16:52.573Z,94.80
2018-06-29T17:19:56.367Z,95.20
2018-06-29T17:22:59.948Z,95.30
2018-06-29T17:29:07.031Z,95.80
2018-06-29T17:32:10.585Z,96.10
2018-06-29T17:35:14.227Z,96.20
2018-06-29T17:38:17.822Z,96.30
2018-06-29T17:41:21.423Z,96.10
2018-06-29T17:47:28.411Z,96.40
2018-06-29T17:50:32.068Z,96.70
2018-06-29T17:53:36.069Z,97.20
2018-06-29T17:56:39.906Z,97.40
2018-06-29T17:59:43.513Z,97.50
2018-06-29T18:02:47.137Z,97.60
2018-06-29T18:05:50.828Z,97.60
2018-06-29T18:08:54.538Z,97.50
2018-06-29T18:11:58.218Z,97.60
2018-06-29T18:15:01.886Z,97.60
2018-06-29T18:18:05.683Z,97.60
2018-06-29T18:21:09.484Z,97.70
2018-06-29T18:24:13.237Z,97.90
2018-06-29T18:27:16.944Z,97.90
2018-06-29T18:30:20.663Z,97.90
2018-06-29T18:33:24.347Z,97.90
2018-06-29T18:36:28.103Z,98.10
2018-06-29T18:39:31.751Z,98.10
2018-06-29T18:42:35.451Z,98.20
2018-06-29T18:45:39.135Z,98.20
2018-06-29T18:48:42.762Z,98.20
2018-06-29T18:51:46.470Z,98.30
2018-06-29T18:54:50.072Z,98.30
2018-06-29T18:57:53.827Z,98.50
2018-06-29T19:00:57.572Z,98.60
2018-06-29T19:04:01.541Z,98.30
2018-06-29T19:10:08.608Z,98.10
2018-06-29T19:13:12.243Z,98.10
2018-06-29T19:16:15.875Z,98.20
2018-06-29T19:19:19.603Z,98.30
2018-06-29T19:22:23.626Z,98.40
2018-06-29T19:25:29.236Z,98.50
2018-06-29T19:28:32.820Z,98.50
2018-06-29T19:34:39.973Z,98.30
2018-06-29T19:37:43.645Z,98.30
2018-06-29T19:43:50.618Z,98.10
2018-06-29T19:49:58.601Z,98.20
2018-06-29T19:53:02.359Z,98.10
2018-06-29T19:56:05.963Z,98.20
2018-06-29T19:59:09.622Z,97.90
2018-06-29T20:02:13.375Z,97.50
2018-06-29T20:05:17.045Z,97.40
2018-06-29T20:08:20.599Z,97.40
2018-06-29T20:11:24.320Z,97.50
2018-06-29T20:14:27.981Z,97.40
2018-06-29T20:17:31.639Z,97.60
2018-06-29T20:20:35.386Z,97.60
2018-06-29T20:23:38.937Z,97.90
2018-06-29T20:26:42.542Z,97.70
2018-06-29T20:29:46.279Z,97.90
2018-06-29T20:32:49.962Z,98.10
2018-06-29T20:35:53.755Z,98.20
2018-06-29T20:38:57.696Z,98.30
2018-06-29T20:42:01.450Z,98.60
2018-06-29T20:45:05.074Z,98.90
2018-06-29T20:48:08.726Z,99.20
2018-06-29T20:51:13.432Z,99.50
2018-06-29T20:54:17.083Z,99.90
2018-06-29T20:57:20.704Z,99.90
2018-06-29T21:00:25.134Z,99.90
2018-06-29T21:03:28.810Z,99.90
2018-06-29T21:06:32.475Z,99.90
2018-06-29T21:12:39.615Z,99.90
2018-06-29T21:15:43.477Z,99.90
2018-06-29T21:18:47.182Z,99.90
2018-06-29T21:21:50.880Z,99.90
2018-06-29T21:27:57.959Z,99.90
2018-06-29T21:31:01.694Z,99.90
2018-06-29T21:34:05.301Z,99.90
2018-06-29T21:37:09.150Z,99.90
2018-06-29T21:40:12.832Z,99.90
2018-06-29T21:43:16.503Z,99.90
2018-06-29T21:49:24.292Z,99.90
2018-06-29T21:52:27.902Z,99.90
2018-06-29T21:55:31.519Z,99.90
2018-06-29T22:01:38.583Z,99.90
2018-06-29T22:04:42.190Z,99.90
2018-06-29T22:07:46.033Z,99.90
2018-06-29T22:10:49.622Z,99.90
2018-06-29T22:13:53.338Z,99.90
2018-06-29T22:16:56.916Z,99.90
2018-06-29T22:20:00.595Z,99.90
2018-06-29T22:23:04.841Z,99.90
2018-06-29T22:26:08.514Z,99.90
2018-06-29T22:29:12.216Z,99.90
2018-06-29T22:32:15.922Z,99.90
2018-06-29T22:35:19.862Z,99.90
2018-06-29T22:38:23.540Z,99.90
2018-06-29T22:41:27.147Z,99.90
2018-06-29T22:44:30.797Z,99.90
2018-06-29T22:47:34.394Z,99.90
2018-06-29T22:53:41.374Z,99.90
2018-06-29T22:56:44.991Z,99.90
2018-06-29T23:02:57.368Z,99.90
2018-06-29T23:06:01.274Z,99.90
2018-06-29T23:09:06.462Z,99.90
2018-06-29T23:12:10.049Z,99.90
2018-06-29T23:21:20.448Z,99.90
2018-06-29T23:27:27.879Z,99.90
2018-06-29T23:30:31.524Z,99.90
2018-06-29T23:33:35.190Z,99.90
2018-06-29T23:36:38.945Z,99.90
2018-06-29T23:39:43.352Z,99.90
2018-06-29T23:42:46.943Z,99.90
2018-06-29T23:45:50.562Z,99.90
2018-06-29T23:48:54.163Z,99.90
2018-06-29T23:51:57.778Z,99.90
2018-06-29T23:55:01.460Z,99.90
2018-06-29T23:58:05.176Z,99.90
